< < Back
Terminal Aerodrome Forecast


Current Version              Previous Versions:   1  2  3  4  5  6  7  8  9  

Terminal Aerodrome Forecast

455
FTUS42 KTAE 300500 RRA
TAFVLD
TAF
KVLD 300541Z 3006/3106 00000KT P6SM BKN250
     FM300900 00000KT 4SM BR SCT070 SCT250
     FM301300 36006KT P6SM SCT100 SCT250
     FM310300 00000KT P6SM SCT250=

Latest METAR

441
SAUS70 KWBC 301458
MTRVLD
METAR KVLD 301453Z VRB03KT 10SM FEW030 BKN095 18/09 A3003 RMK AO2
RAB34E43 SLP176 P0000 60000 T01830089 51007


USA.gov is the U.S. government's official web portal to all federal, state and local government web resources and services.